createdAt,value
2022-12-29T00:01:15.313Z,7.50
2022-12-29T00:03:43.943Z,7.50
2022-12-29T00:06:12.663Z,7.50
2022-12-29T00:08:42.735Z,7.60
2022-12-29T00:11:14.001Z,7.60
2022-12-29T00:14:00.050Z,7.60
2022-12-29T00:16:29.314Z,7.70
2022-12-29T00:18:57.924Z,7.60
2022-12-29T00:21:44.169Z,7.70
2022-12-29T00:24:34.482Z,7.70
2022-12-29T00:27:31.658Z,7.70
2022-12-29T00:30:18.020Z,7.70
2022-12-29T00:33:03.889Z,7.80
2022-12-29T00:35:36.617Z,7.80
2022-12-29T00:38:27.185Z,7.80
2022-12-29T00:41:14.398Z,7.80
2022-12-29T00:44:00.724Z,7.90
2022-12-29T00:46:29.701Z,7.90
2022-12-29T00:49:15.878Z,7.90
2022-12-29T00:51:46.646Z,7.90
2022-12-29T00:54:15.926Z,8.00
2022-12-29T00:56:50.159Z,8.00
2022-12-29T00:59:20.458Z,8.00
2022-12-29T01:01:49.965Z,8.00
2022-12-29T01:04:18.652Z,8.10
2022-12-29T01:06:47.257Z,8.10
2022-12-29T01:09:35.965Z,8.10
2022-12-29T01:12:07.353Z,8.10
2022-12-29T01:14:36.913Z,8.20
2022-12-29T01:17:06.537Z,8.20
2022-12-29T01:19:35.659Z,8.20
2022-12-29T01:22:04.379Z,8.30
2022-12-29T01:24:33.019Z,8.30
2022-12-29T01:27:01.680Z,8.30
2022-12-29T01:29:31.825Z,8.30
2022-12-29T01:32:00.509Z,8.30
2022-12-29T01:34:29.151Z,8.30
2022-12-29T01:36:57.934Z,8.30
2022-12-29T01:39:26.822Z,8.30
2022-12-29T01:41:55.404Z,8.30
2022-12-29T01:44:55.177Z,8.40
2022-12-29T01:47:37.131Z,8.40
2022-12-29T01:50:11.093Z,8.40
2022-12-29T01:52:45.106Z,8.50
2022-12-29T01:55:14.218Z,8.50
2022-12-29T01:57:48.610Z,8.50
2022-12-29T02:00:20.443Z,8.60
2022-12-29T02:02:53.144Z,8.60
2022-12-29T02:05:28.685Z,8.60
2022-12-29T02:07:57.474Z,8.60
2022-12-29T02:10:29.091Z,8.70
2022-12-29T02:12:58.844Z,8.70
2022-12-29T02:15:43.457Z,8.70
2022-12-29T02:18:35.535Z,8.80
2022-12-29T02:21:28.681Z,8.80
2022-12-29T02:24:39.272Z,8.80
2022-12-29T02:27:36.483Z,8.80
2022-12-29T02:30:14.419Z,8.80
2022-12-29T02:32:53.908Z,8.80
2022-12-29T02:35:33.299Z,8.80
2022-12-29T02:38:10.571Z,8.80
2022-12-29T02:40:45.415Z,8.80
2022-12-29T02:43:25.499Z,8.80
2022-12-29T02:45:57.315Z,8.80
2022-12-29T02:48:34.833Z,8.80
2022-12-29T02:51:06.561Z,8.80
2022-12-29T02:53:54.056Z,8.70
2022-12-29T02:56:23.303Z,8.70
2022-12-29T02:58:51.929Z,8.60
2022-12-29T03:01:31.560Z,8.60
2022-12-29T03:04:20.169Z,8.50
2022-12-29T03:06:58.492Z,8.50
2022-12-29T03:09:36.104Z,8.50
2022-12-29T03:12:16.342Z,8.50
2022-12-29T03:15:16.480Z,8.50
2022-12-29T03:17:54.359Z,8.50
2022-12-29T03:20:29.246Z,8.60
2022-12-29T03:23:02.808Z,8.60
2022-12-29T03:25:37.191Z,8.60
2022-12-29T03:28:12.925Z,8.70
2022-12-29T03:30:48.049Z,8.70
2022-12-29T03:33:23.757Z,8.70
2022-12-29T03:35:58.209Z,8.70
2022-12-29T03:38:33.791Z,8.60
2022-12-29T03:41:06.979Z,8.70
2022-12-29T03:43:36.439Z,8.70
2022-12-29T03:46:05.103Z,8.80
2022-12-29T03:48:34.433Z,8.80
2022-12-29T03:51:04.929Z,8.80
2022-12-29T03:53:33.899Z,8.80
2022-12-29T03:56:03.049Z,8.80
2022-12-29T03:58:31.964Z,8.80
2022-12-29T04:01:06.726Z,8.70
2022-12-29T04:03:39.505Z,8.70
2022-12-29T04:06:09.940Z,8.80
2022-12-29T04:08:51.990Z,8.80
2022-12-29T04:11:20.527Z,8.80
2022-12-29T04:13:49.029Z,8.80
2022-12-29T04:16:22.244Z,8.70
2022-12-29T04:18:50.949Z,8.70
2022-12-29T04:21:21.370Z,8.70
2022-12-29T04:23:50.351Z,8.60
2022-12-29T04:26:19.641Z,8.60
2022-12-29T04:28:58.143Z,8.60
2022-12-29T04:31:49.921Z,8.60
2022-12-29T04:34:19.318Z,8.70
2022-12-29T04:36:51.152Z,8.70
2022-12-29T04:39:20.208Z,8.70
2022-12-29T04:41:49.043Z,8.70
2022-12-29T04:44:21.560Z,8.70
2022-12-29T04:47:07.731Z,8.80
2022-12-29T04:49:51.501Z,8.70
2022-12-29T04:52:42.100Z,8.70
2022-12-29T04:55:12.586Z,8.70
2022-12-29T04:57:42.552Z,8.60
2022-12-29T05:00:14.818Z,8.60
2022-12-29T05:02:43.607Z,8.60
2022-12-29T05:05:12.562Z,8.50
2022-12-29T05:07:46.136Z,8.50
2022-12-29T05:10:14.903Z,8.50
2022-12-29T05:12:45.093Z,8.50
2022-12-29T05:15:15.726Z,8.60
2022-12-29T05:17:45.532Z,8.60
2022-12-29T05:20:14.482Z,8.60
2022-12-29T05:22:45.472Z,8.70
2022-12-29T05:25:14.118Z,8.70
2022-12-29T05:27:55.051Z,8.60
2022-12-29T05:30:32.026Z,8.60
2022-12-29T05:33:00.751Z,8.50
2022-12-29T05:35:29.678Z,8.50
2022-12-29T05:37:59.833Z,8.40
2022-12-29T05:40:29.022Z,8.30
2022-12-29T05:43:01.009Z,8.20
2022-12-29T05:45:42.129Z,8.20
2022-12-29T05:48:37.868Z,8.10
2022-12-29T05:51:15.709Z,8.00
2022-12-29T05:53:54.910Z,7.90
2022-12-29T05:56:24.933Z,7.80
2022-12-29T05:58:58.543Z,7.80
2022-12-29T06:01:27.343Z,7.70
2022-12-29T06:03:56.583Z,7.60
2022-12-29T06:06:25.446Z,7.60
2022-12-29T06:08:56.342Z,7.60
2022-12-29T06:11:25.971Z,7.60
2022-12-29T06:13:58.124Z,7.50
2022-12-29T06:16:26.959Z,7.60
2022-12-29T06:18:59.391Z,7.60
2022-12-29T06:21:27.971Z,7.60
2022-12-29T06:23:58.118Z,7.60
2022-12-29T06:26:27.236Z,7.50
2022-12-29T06:28:55.975Z,7.50
2022-12-29T06:31:24.752Z,7.40
2022-12-29T06:33:53.795Z,7.40
2022-12-29T06:36:22.485Z,7.40
2022-12-29T06:38:53.466Z,7.40
2022-12-29T06:41:28.442Z,7.30
2022-12-29T06:44:19.555Z,7.30
2022-12-29T06:47:03.448Z,7.20
2022-12-29T06:49:31.976Z,7.20
2022-12-29T06:52:01.703Z,7.20
2022-12-29T06:54:30.236Z,7.20
2022-12-29T06:57:00.550Z,7.30
2022-12-29T06:59:29.238Z,7.30
2022-12-29T07:01:58.034Z,7.30
2022-12-29T07:04:26.861Z,7.30
2022-12-29T07:06:55.543Z,7.30
2022-12-29T07:09:24.174Z,7.30
2022-12-29T07:11:52.815Z,7.30
2022-12-29T07:14:22.850Z,7.30
2022-12-29T07:16:51.540Z,7.30
2022-12-29T07:19:20.276Z,7.40
2022-12-29T07:21:48.997Z,7.40
2022-12-29T07:24:17.521Z,7.40
2022-12-29T07:27:06.750Z,7.40
2022-12-29T07:29:39.328Z,7.40
2022-12-29T07:32:08.202Z,7.50
2022-12-29T07:34:36.921Z,7.50
2022-12-29T07:37:05.404Z,7.50
2022-12-29T07:39:34.076Z,7.50
2022-12-29T07:42:05.199Z,7.60
2022-12-29T07:44:42.865Z,7.60
2022-12-29T07:47:28.567Z,7.70
2022-12-29T07:49:57.137Z,7.90
2022-12-29T07:52:25.633Z,8.00
2022-12-29T07:54:54.717Z,8.10
2022-12-29T07:57:28.105Z,8.30
2022-12-29T08:00:01.691Z,8.30
2022-12-29T08:02:40.552Z,8.40
2022-12-29T08:05:09.711Z,8.40
2022-12-29T08:07:38.343Z,8.50
2022-12-29T08:10:08.122Z,8.60
2022-12-29T08:12:36.716Z,8.70
2022-12-29T08:15:08.083Z,8.70
2022-12-29T08:17:36.608Z,8.80
2022-12-29T08:20:06.436Z,8.90
2022-12-29T08:22:35.153Z,8.90
2022-12-29T08:25:03.760Z,9.00
2022-12-29T08:27:32.559Z,9.10
2022-12-29T08:30:01.799Z,9.10
2022-12-29T08:32:32.045Z,9.20
2022-12-29T08:35:00.934Z,9.30
2022-12-29T08:37:31.465Z,9.40
2022-12-29T08:40:01.233Z,9.50
2022-12-29T08:42:32.189Z,9.50
2022-12-29T08:45:01.292Z,9.60
2022-12-29T08:47:31.773Z,9.70
2022-12-29T08:50:00.376Z,9.80
2022-12-29T08:52:29.023Z,9.90
2022-12-29T08:54:57.699Z,10.00
2022-12-29T08:57:26.477Z,10.10
2022-12-29T09:00:08.655Z,10.20
2022-12-29T09:02:38.876Z,10.20
2022-12-29T09:05:08.407Z,10.20
2022-12-29T09:07:36.877Z,10.30
2022-12-29T09:10:07.600Z,10.30
2022-12-29T09:12:36.935Z,10.30
2022-12-29T09:15:06.180Z,10.40
2022-12-29T09:17:43.522Z,10.40
2022-12-29T09:20:13.975Z,10.50
2022-12-29T09:22:43.033Z,10.50
2022-12-29T09:25:12.046Z,10.60
2022-12-29T09:27:41.280Z,10.60
2022-12-29T09:30:12.859Z,10.70
2022-12-29T09:32:45.038Z,10.70
2022-12-29T09:35:16.234Z,10.70
2022-12-29T09:37:45.118Z,10.90
2022-12-29T09:40:27.642Z,10.90
2022-12-29T09:43:22.853Z,11.00
2022-12-29T09:45:59.869Z,11.10
2022-12-29T09:48:33.102Z,11.20
2022-12-29T09:51:10.387Z,11.20
2022-12-29T09:53:42.233Z,11.30
2022-12-29T09:56:18.112Z,11.20
2022-12-29T09:58:54.578Z,11.30
2022-12-29T10:01:30.359Z,11.40
2022-12-29T10:04:00.648Z,11.50
2022-12-29T10:07:03.506Z,11.50
2022-12-29T10:09:36.247Z,11.50
2022-12-29T10:12:17.925Z,11.50
2022-12-29T10:15:00.654Z,11.60
2022-12-29T10:17:40.067Z,11.60
2022-12-29T10:20:25.575Z,11.60
2022-12-29T10:23:16.319Z,11.60
2022-12-29T10:25:46.431Z,11.60
2022-12-29T10:28:21.646Z,11.70
2022-12-29T10:30:53.436Z,11.90
2022-12-29T10:33:26.587Z,11.90
2022-12-29T10:35:55.507Z,12.00
2022-12-29T10:38:31.754Z,12.00
2022-12-29T10:41:07.741Z,12.20
2022-12-29T10:43:43.455Z,12.40
2022-12-29T10:46:15.167Z,12.50
2022-12-29T10:48:46.419Z,12.70
2022-12-29T10:51:23.747Z,12.90
2022-12-29T10:53:59.223Z,13.10
2022-12-29T10:56:36.572Z,13.20
2022-12-29T10:59:14.404Z,13.30
2022-12-29T11:01:53.438Z,13.30
2022-12-29T11:04:36.972Z,13.30
2022-12-29T11:07:10.626Z,13.20
2022-12-29T11:09:44.775Z,13.10
2022-12-29T11:12:25.411Z,13.00
2022-12-29T11:15:16.126Z,12.90
2022-12-29T11:17:47.093Z,12.80
2022-12-29T11:20:31.255Z,12.80
2022-12-29T11:23:00.682Z,12.80
2022-12-29T11:25:30.840Z,12.70
2022-12-29T11:28:02.194Z,12.70
2022-12-29T11:30:32.821Z,12.80
2022-12-29T11:33:05.916Z,12.80
2022-12-29T11:35:41.046Z,12.80
2022-12-29T11:38:22.830Z,12.80
2022-12-29T11:40:53.159Z,12.80
2022-12-29T11:43:29.108Z,12.70
2022-12-29T11:45:58.804Z,12.60
2022-12-29T11:48:31.283Z,12.60
2022-12-29T11:51:01.918Z,12.50
2022-12-29T11:53:39.402Z,12.50
2022-12-29T11:56:13.050Z,12.50
2022-12-29T11:58:42.038Z,12.40
2022-12-29T12:01:18.725Z,12.40
2022-12-29T12:03:55.484Z,12.30
2022-12-29T12:06:27.405Z,12.20
2022-12-29T12:08:58.652Z,12.20
2022-12-29T12:11:37.966Z,12.20
2022-12-29T12:14:16.557Z,12.20
2022-12-29T12:17:08.815Z,12.20
2022-12-29T12:19:43.934Z,12.30
2022-12-29T12:22:21.744Z,12.30
2022-12-29T12:24:54.496Z,12.40
2022-12-29T12:27:28.496Z,12.40
2022-12-29T12:30:04.131Z,12.50
2022-12-29T12:32:44.294Z,12.50
2022-12-29T12:35:21.310Z,12.60
2022-12-29T12:38:02.621Z,12.70
2022-12-29T12:40:47.216Z,12.70
2022-12-29T12:43:42.393Z,12.70
2022-12-29T12:46:46.738Z,12.70
2022-12-29T12:49:38.321Z,12.60
2022-12-29T12:52:16.716Z,12.50
2022-12-29T12:55:12.801Z,12.50
2022-12-29T12:57:51.547Z,12.50
2022-12-29T13:00:24.391Z,12.40
2022-12-29T13:03:05.861Z,12.50
2022-12-29T13:06:06.354Z,12.40
2022-12-29T13:08:56.921Z,12.30
2022-12-29T13:11:36.470Z,12.30
2022-12-29T13:14:21.336Z,12.30
2022-12-29T13:16:58.415Z,12.30
2022-12-29T13:19:32.391Z,12.30
2022-12-29T13:22:09.564Z,12.20
2022-12-29T13:24:48.119Z,12.20
2022-12-29T13:27:24.331Z,12.10
2022-12-29T13:30:02.612Z,12.20
2022-12-29T13:32:43.114Z,12.20
2022-12-29T13:35:28.721Z,12.20
2022-12-29T13:38:01.180Z,12.30
2022-12-29T13:40:40.166Z,12.20
2022-12-29T13:43:09.377Z,12.30
2022-12-29T13:45:38.428Z,12.20
2022-12-29T13:48:17.705Z,12.20
2022-12-29T13:50:54.916Z,12.20
2022-12-29T13:53:32.727Z,12.20
2022-12-29T13:56:09.050Z,12.20
2022-12-29T13:58:43.782Z,12.10
2022-12-29T14:01:19.344Z,12.10
2022-12-29T14:03:52.284Z,12.10
2022-12-29T14:06:28.621Z,12.00
2022-12-29T14:09:00.637Z,11.90
2022-12-29T14:11:34.650Z,11.80
2022-12-29T14:14:15.285Z,11.80
2022-12-29T14:16:45.635Z,11.70
2022-12-29T14:19:19.114Z,11.70
2022-12-29T14:21:56.524Z,11.60
2022-12-29T14:24:42.734Z,11.60
2022-12-29T14:27:46.809Z,11.50
2022-12-29T14:30:54.526Z,11.40
2022-12-29T14:33:27.468Z,11.30
2022-12-29T14:35:59.352Z,11.10
2022-12-29T14:38:33.115Z,11.00
2022-12-29T14:41:30.811Z,10.80
2022-12-29T14:44:19.714Z,10.70
2022-12-29T14:46:58.805Z,10.50
2022-12-29T14:49:29.835Z,10.50
2022-12-29T14:52:14.511Z,10.40
2022-12-29T14:54:52.732Z,10.40
2022-12-29T14:57:35.658Z,10.40
2022-12-29T15:00:17.240Z,10.40
2022-12-29T15:02:50.072Z,10.40
2022-12-29T15:05:32.255Z,10.40
2022-12-29T15:08:03.436Z,10.40
2022-12-29T15:10:39.624Z,10.40
2022-12-29T15:13:17.818Z,10.40
2022-12-29T15:15:46.548Z,10.30
2022-12-29T15:18:27.520Z,10.30
2022-12-29T15:20:59.451Z,10.30
2022-12-29T15:23:31.557Z,10.30
2022-12-29T15:26:02.288Z,10.40
2022-12-29T15:28:39.848Z,10.40
2022-12-29T15:31:13.219Z,10.40
2022-12-29T15:33:44.547Z,10.40
2022-12-29T15:36:15.171Z,10.40
2022-12-29T15:38:45.360Z,10.40
2022-12-29T15:41:28.353Z,10.50
2022-12-29T15:44:08.501Z,10.50
2022-12-29T15:46:37.346Z,10.50
2022-12-29T15:49:09.096Z,10.50
2022-12-29T15:51:40.739Z,10.50
2022-12-29T15:54:18.900Z,10.50
2022-12-29T15:56:48.184Z,10.50
2022-12-29T15:59:27.362Z,10.50
2022-12-29T16:01:58.059Z,10.50
2022-12-29T16:04:31.403Z,10.60
2022-12-29T16:07:01.703Z,10.60
2022-12-29T16:09:36.053Z,10.60
2022-12-29T16:12:07.641Z,10.60
2022-12-29T16:14:42.483Z,10.60
2022-12-29T16:17:16.833Z,10.60
2022-12-29T16:19:52.356Z,10.60
2022-12-29T16:22:28.101Z,10.60
2022-12-29T16:25:04.849Z,10.60
2022-12-29T16:27:39.948Z,10.60
2022-12-29T16:30:18.973Z,10.60
2022-12-29T16:32:48.722Z,10.60
2022-12-29T16:35:20.858Z,10.60
2022-12-29T16:37:50.435Z,10.60
2022-12-29T16:40:32.507Z,10.60
2022-12-29T16:43:02.721Z,10.60
2022-12-29T16:46:04.900Z,10.60
2022-12-29T16:48:36.004Z,10.60
2022-12-29T16:51:07.516Z,10.50
2022-12-29T16:53:39.067Z,10.60
2022-12-29T16:56:15.860Z,10.50
2022-12-29T16:58:49.432Z,10.50
2022-12-29T17:01:20.198Z,10.50
2022-12-29T17:03:52.460Z,10.60
2022-12-29T17:06:23.476Z,10.60
2022-12-29T17:08:53.392Z,10.60
2022-12-29T17:11:52.479Z,10.60
2022-12-29T17:14:33.789Z,10.60
2022-12-29T17:17:02.705Z,10.50
2022-12-29T17:19:33.167Z,10.50
2022-12-29T17:22:02.244Z,10.50
2022-12-29T17:24:31.345Z,10.50
2022-12-29T17:27:02.617Z,10.50
2022-12-29T17:29:35.095Z,10.50
2022-12-29T17:32:05.898Z,10.50
2022-12-29T17:34:34.869Z,10.40
2022-12-29T17:37:04.305Z,10.40
2022-12-29T17:39:32.864Z,10.40
2022-12-29T17:42:02.889Z,10.30
2022-12-29T17:44:31.679Z,10.30
2022-12-29T17:47:00.166Z,10.30
2022-12-29T17:49:29.972Z,10.30
2022-12-29T17:51:59.192Z,10.10
2022-12-29T17:54:28.137Z,10.00
2022-12-29T17:56:56.751Z,9.70
2022-12-29T17:59:26.683Z,9.60
2022-12-29T18:01:55.424Z,9.40
2022-12-29T18:04:24.047Z,9.20
2022-12-29T18:06:52.711Z,9.00
2022-12-29T18:09:22.790Z,8.90
2022-12-29T18:11:51.485Z,8.70
2022-12-29T18:14:20.104Z,8.70
2022-12-29T18:16:50.522Z,8.60
2022-12-29T18:19:19.106Z,8.50
2022-12-29T18:21:47.817Z,8.50
2022-12-29T18:24:16.556Z,8.50
2022-12-29T18:26:45.236Z,8.40
2022-12-29T18:29:13.826Z,8.40
2022-12-29T18:31:42.444Z,8.40
2022-12-29T18:34:38.843Z,8.40
2022-12-29T18:37:07.353Z,8.40
2022-12-29T18:39:37.087Z,8.40
2022-12-29T18:42:05.927Z,8.40
2022-12-29T18:44:35.534Z,8.40
2022-12-29T18:47:04.481Z,8.40
2022-12-29T18:49:33.063Z,8.40
2022-12-29T18:52:03.205Z,8.50
2022-12-29T18:54:33.373Z,8.50
2022-12-29T18:57:02.007Z,8.50
2022-12-29T18:59:30.484Z,8.50
2022-12-29T19:01:58.902Z,8.60
2022-12-29T19:04:27.453Z,8.60
2022-12-29T19:06:55.901Z,8.60
2022-12-29T19:09:26.752Z,8.60
2022-12-29T19:11:55.311Z,8.60
2022-12-29T19:14:23.942Z,8.60
2022-12-29T19:16:52.617Z,8.60
2022-12-29T19:19:21.299Z,8.60
2022-12-29T19:21:49.772Z,8.60
2022-12-29T19:24:18.398Z,8.60
2022-12-29T19:26:49.610Z,8.70
2022-12-29T19:29:18.113Z,8.70
2022-12-29T19:31:46.608Z,8.70
2022-12-29T19:34:16.157Z,8.70
2022-12-29T19:36:45.746Z,8.70
2022-12-29T19:39:14.854Z,8.70
2022-12-29T19:41:43.646Z,8.80
2022-12-29T19:44:13.638Z,8.70
2022-12-29T19:46:42.250Z,8.80
2022-12-29T19:49:10.828Z,8.80
2022-12-29T19:51:39.423Z,8.70
2022-12-29T19:54:08.085Z,8.70
2022-12-29T19:56:36.675Z,8.70
2022-12-29T19:59:05.263Z,8.70
2022-12-29T20:01:35.452Z,8.70
2022-12-29T20:04:04.298Z,8.70
2022-12-29T20:06:32.884Z,8.70
2022-12-29T20:09:03.735Z,8.80
2022-12-29T20:11:32.369Z,8.80
2022-12-29T20:14:00.999Z,8.80
2022-12-29T20:16:30.458Z,8.80
2022-12-29T20:19:00.600Z,8.80
2022-12-29T20:21:29.249Z,8.80
2022-12-29T20:23:57.824Z,8.80
2022-12-29T20:26:28.988Z,8.80
2022-12-29T20:29:00.231Z,8.80
2022-12-29T20:31:31.226Z,8.80
2022-12-29T20:34:01.699Z,8.80
2022-12-29T20:36:32.443Z,8.70
2022-12-29T20:39:03.420Z,8.70
2022-12-29T20:41:32.260Z,8.70
2022-12-29T20:44:00.986Z,8.70
2022-12-29T20:46:35.304Z,8.70
2022-12-29T20:49:09.700Z,8.70
2022-12-29T20:52:05.277Z,8.70
2022-12-29T20:54:27.126Z,8.70
2022-12-29T20:56:55.683Z,8.70
2022-12-29T20:59:28.449Z,8.70
2022-12-29T21:01:58.231Z,8.60
2022-12-29T21:04:43.721Z,8.60
2022-12-29T21:07:20.142Z,8.60
2022-12-29T21:09:49.073Z,8.60
2022-12-29T21:12:17.617Z,8.50
2022-12-29T21:14:46.294Z,8.50
2022-12-29T21:17:14.825Z,8.40
2022-12-29T21:19:44.985Z,8.50
2022-12-29T21:22:13.655Z,8.40
2022-12-29T21:24:42.255Z,8.40
2022-12-29T21:27:10.886Z,8.40
2022-12-29T21:29:39.472Z,8.40
2022-12-29T21:32:08.157Z,8.40
2022-12-29T21:34:37.006Z,8.40
2022-12-29T21:37:07.066Z,8.40
2022-12-29T21:39:35.490Z,8.30
2022-12-29T21:42:04.140Z,8.30
2022-12-29T21:44:50.246Z,8.30
2022-12-29T21:47:18.821Z,8.30
2022-12-29T21:49:47.491Z,8.30
2022-12-29T21:52:17.599Z,8.30
2022-12-29T21:55:01.425Z,8.40
2022-12-29T21:57:47.573Z,8.30
2022-12-29T22:00:35.264Z,8.30
2022-12-29T22:03:23.719Z,8.30
2022-12-29T22:06:10.602Z,8.30
2022-12-29T22:08:58.581Z,8.30
2022-12-29T22:11:44.112Z,8.30
2022-12-29T22:14:12.721Z,8.30
2022-12-29T22:16:41.272Z,8.30
2022-12-29T22:19:11.120Z,8.20
2022-12-29T22:21:39.651Z,8.20
2022-12-29T22:24:10.418Z,8.20
2022-12-29T22:26:39.042Z,8.20
2022-12-29T22:29:07.633Z,8.20
2022-12-29T22:31:36.416Z,8.20
2022-12-29T22:34:06.325Z,8.20
2022-12-29T22:36:35.147Z,8.20
2022-12-29T22:39:03.706Z,8.20
2022-12-29T22:41:33.943Z,8.10
2022-12-29T22:44:02.550Z,8.10
2022-12-29T22:46:31.535Z,8.10
2022-12-29T22:49:00.138Z,8.10
2022-12-29T22:51:28.944Z,8.00
2022-12-29T22:53:58.106Z,8.00
2022-12-29T22:56:26.981Z,8.00
2022-12-29T22:58:57.136Z,8.00
2022-12-29T23:01:25.855Z,8.00
2022-12-29T23:04:10.981Z,8.00
2022-12-29T23:06:43.373Z,8.00
2022-12-29T23:09:16.502Z,8.00
2022-12-29T23:11:45.496Z,8.00
2022-12-29T23:14:16.977Z,8.00
2022-12-29T23:16:45.968Z,8.00
2022-12-29T23:19:15.344Z,8.00
2022-12-29T23:21:44.042Z,8.10
2022-12-29T23:24:15.010Z,8.10
2022-12-29T23:26:45.642Z,8.00
2022-12-29T23:29:17.696Z,8.00
2022-12-29T23:31:47.298Z,8.00
2022-12-29T23:34:17.413Z,8.00
2022-12-29T23:36:46.810Z,8.00
2022-12-29T23:39:20.240Z,8.00
2022-12-29T23:41:48.946Z,8.00
2022-12-29T23:44:19.435Z,8.00
2022-12-29T23:46:48.315Z,8.00
2022-12-29T23:49:17.145Z,8.00
2022-12-29T23:51:45.936Z,8.00
2022-12-29T23:54:14.790Z,7.90
2022-12-29T23:56:43.394Z,7.90
2022-12-29T23:59:12.091Z,7.90
